sensor_id;sensor_type;location;lat;lon;timestamp;pressure;altitude;pressure_sealevel;temperature;humidity
14767;BME280;7475;53.558;9.970;2023-05-29T00:01:12;102224.03;;;13.59;100.00
14767;BME280;7475;53.558;9.970;2023-05-29T00:03:37;102233.00;;;13.58;100.00
14767;BME280;7475;53.558;9.970;2023-05-29T00:06:02;102227.06;;;13.53;100.00
14767;BME280;7475;53.558;9.970;2023-05-29T00:08:28;102236.84;;;13.53;100.00
14767;BME280;7475;53.558;9.970;2023-05-29T00:10:53;102243.38;;;13.47;100.00
14767;BME280;7475;53.558;9.970;2023-05-29T00:13:18;102232.94;;;13.42;100.00
14767;BME280;7475;53.558;9.970;2023-05-29T00:15:44;102236.63;;;13.40;100.00
14767;BME280;7475;53.558;9.970;2023-05-29T00:18:09;102238.53;;;13.38;100.00
14767;BME280;7475;53.558;9.970;2023-05-29T00:20:35;102242.28;;;13.34;100.00
14767;BME280;7475;53.558;9.970;2023-05-29T00:23:01;102233.63;;;13.28;100.00
14767;BME280;7475;53.558;9.970;2023-05-29T00:25:31;102242.78;;;13.24;100.00
14767;BME280;7475;53.558;9.970;2023-05-29T00:27:56;102241.03;;;13.23;100.00
14767;BME280;7475;53.558;9.970;2023-05-29T00:30:21;102246.38;;;13.23;100.00
14767;BME280;7475;53.558;9.970;2023-05-29T00:32:47;102239.28;;;13.22;100.00
14767;BME280;7475;53.558;9.970;2023-05-29T00:35:12;102251.84;;;13.20;100.00
14767;BME280;7475;53.558;9.970;2023-05-29T00:37:37;102249.28;;;13.19;100.00
14767;BME280;7475;53.558;9.970;2023-05-29T00:40:03;102261.13;;;13.13;100.00
14767;BME280;7475;53.558;9.970;2023-05-29T00:42:29;102259.56;;;13.09;100.00
14767;BME280;7475;53.558;9.970;2023-05-29T00:44:54;102258.94;;;13.04;100.00
14767;BME280;7475;53.558;9.970;2023-05-29T00:47:20;102264.50;;;12.99;100.00
14767;BME280;7475;53.558;9.970;2023-05-29T00:49:45;102273.66;;;12.93;100.00
14767;BME280;7475;53.558;9.970;2023-05-29T00:52:11;102276.66;;;12.87;100.00
14767;BME280;7475;53.558;9.970;2023-05-29T00:54:37;102271.78;;;12.78;100.00
14767;BME280;7475;53.558;9.970;2023-05-29T00:57:04;102288.09;;;12.72;100.00
14767;BME280;7475;53.558;9.970;2023-05-29T00:59:32;102279.59;;;12.64;100.00
14767;BME280;7475;53.558;9.970;2023-05-29T01:01:58;102281.63;;;12.59;100.00
14767;BME280;7475;53.558;9.970;2023-05-29T01:04:26;102280.19;;;12.51;100.00
14767;BME280;7475;53.558;9.970;2023-05-29T01:06:51;102284.09;;;12.44;100.00
14767;BME280;7475;53.558;9.970;2023-05-29T01:09:17;102280.94;;;12.36;100.00
14767;BME280;7475;53.558;9.970;2023-05-29T01:17:19;102302.56;;;12.11;100.00
14767;BME280;7475;53.558;9.970;2023-05-29T01:20:16;102302.84;;;12.05;100.00
14767;BME280;7475;53.558;9.970;2023-05-29T01:28:40;102296.03;;;11.78;100.00
14767;BME280;7475;53.558;9.970;2023-05-29T01:31:07;102294.53;;;11.71;100.00
14767;BME280;7475;53.558;9.970;2023-05-29T01:33:38;102289.50;;;11.65;100.00
14767;BME280;7475;53.558;9.970;2023-05-29T01:36:06;102298.56;;;11.61;100.00
14767;BME280;7475;53.558;9.970;2023-05-29T01:38:31;102299.69;;;11.55;100.00
14767;BME280;7475;53.558;9.970;2023-05-29T01:40:57;102291.91;;;11.51;100.00
14767;BME280;7475;53.558;9.970;2023-05-29T01:43:23;102290.34;;;11.46;100.00
14767;BME280;7475;53.558;9.970;2023-05-29T01:45:48;102304.69;;;11.42;100.00
14767;BME280;7475;53.558;9.970;2023-05-29T01:48:14;102304.88;;;11.38;100.00
14767;BME280;7475;53.558;9.970;2023-05-29T01:50:40;102308.69;;;11.32;100.00
14767;BME280;7475;53.558;9.970;2023-05-29T01:53:09;102312.41;;;11.28;100.00
14767;BME280;7475;53.558;9.970;2023-05-29T01:55:35;102312.53;;;11.25;100.00
14767;BME280;7475;53.558;9.970;2023-05-29T01:58:01;102311.88;;;11.20;100.00
14767;BME280;7475;53.558;9.970;2023-05-29T02:00:28;102313.94;;;11.13;100.00
14767;BME280;7475;53.558;9.970;2023-05-29T02:02:54;102314.97;;;11.09;100.00
14767;BME280;7475;53.558;9.970;2023-05-29T02:05:20;102309.88;;;11.04;100.00
14767;BME280;7475;53.558;9.970;2023-05-29T02:07:46;102317.97;;;11.01;100.00
14767;BME280;7475;53.558;9.970;2023-05-29T02:10:11;102324.34;;;10.97;100.00
14767;BME280;7475;53.558;9.970;2023-05-29T02:12:37;102317.50;;;10.91;100.00
14767;BME280;7475;53.558;9.970;2023-05-29T02:15:02;102323.78;;;10.89;100.00
14767;BME280;7475;53.558;9.970;2023-05-29T02:17:28;102321.25;;;10.86;100.00
14767;BME280;7475;53.558;9.970;2023-05-29T02:19:53;102317.94;;;10.81;100.00
14767;BME280;7475;53.558;9.970;2023-05-29T02:22:18;102316.31;;;10.77;100.00
14767;BME280;7475;53.558;9.970;2023-05-29T02:24:43;102317.38;;;10.72;100.00
14767;BME280;7475;53.558;9.970;2023-05-29T02:27:09;102316.66;;;10.67;100.00
14767;BME280;7475;53.558;9.970;2023-05-29T02:29:35;102318.53;;;10.65;100.00
14767;BME280;7475;53.558;9.970;2023-05-29T02:32:00;102315.16;;;10.62;100.00
14767;BME280;7475;53.558;9.970;2023-05-29T02:34:26;102318.78;;;10.59;100.00
14767;BME280;7475;53.558;9.970;2023-05-29T02:36:52;102320.63;;;10.57;100.00
14767;BME280;7475;53.558;9.970;2023-05-29T02:39:18;102313.72;;;10.53;100.00
14767;BME280;7475;53.558;9.970;2023-05-29T02:41:43;102313.03;;;10.48;100.00
14767;BME280;7475;53.558;9.970;2023-05-29T02:44:08;102310.50;;;10.45;100.00
14767;BME280;7475;53.558;9.970;2023-05-29T02:46:34;102307.03;;;10.43;100.00
14767;BME280;7475;53.558;9.970;2023-05-29T02:48:59;102310.75;;;10.38;100.00
14767;BME280;7475;53.558;9.970;2023-05-29T02:51:25;102312.59;;;10.36;100.00
14767;BME280;7475;53.558;9.970;2023-05-29T02:53:50;102317.16;;;10.33;100.00
14767;BME280;7475;53.558;9.970;2023-05-29T02:56:15;102317.25;;;10.30;100.00
14767;BME280;7475;53.558;9.970;2023-05-29T02:58:41;102315.56;;;10.27;100.00
14767;BME280;7475;53.558;9.970;2023-05-29T03:01:07;102325.38;;;10.25;100.00
14767;BME280;7475;53.558;9.970;2023-05-29T03:03:32;102317.53;;;10.22;100.00
14767;BME280;7475;53.558;9.970;2023-05-29T03:05:58;102328.25;;;10.19;100.00
14767;BME280;7475;53.558;9.970;2023-05-29T03:08:24;102322.16;;;10.17;100.00
14767;BME280;7475;53.558;9.970;2023-05-29T03:10:50;102325.88;;;10.13;100.00
14767;BME280;7475;53.558;9.970;2023-05-29T03:13:17;102322.38;;;10.11;100.00
14767;BME280;7475;53.558;9.970;2023-05-29T03:15:44;102328.75;;;10.07;100.00
14767;BME280;7475;53.558;9.970;2023-05-29T03:18:09;102331.50;;;10.03;100.00
14767;BME280;7475;53.558;9.970;2023-05-29T03:20:34;102328.03;;;10.01;100.00
14767;BME280;7475;53.558;9.970;2023-05-29T03:23:00;102325.47;;;10.00;100.00
14767;BME280;7475;53.558;9.970;2023-05-29T03:25:26;102324.56;;;9.99;100.00
14767;BME280;7475;53.558;9.970;2023-05-29T03:27:51;102320.31;;;9.95;100.00
14767;BME280;7475;53.558;9.970;2023-05-29T03:30:16;102327.41;;;9.95;100.00
14767;BME280;7475;53.558;9.970;2023-05-29T03:32:42;102328.41;;;9.92;100.00
14767;BME280;7475;53.558;9.970;2023-05-29T03:35:07;102329.25;;;9.93;100.00
14767;BME280;7475;53.558;9.970;2023-05-29T03:37:33;102336.34;;;9.92;100.00
14767;BME280;7475;53.558;9.970;2023-05-29T03:39:58;102322.19;;;9.92;100.00
14767;BME280;7475;53.558;9.970;2023-05-29T03:42:23;102333.69;;;9.92;100.00
14767;BME280;7475;53.558;9.970;2023-05-29T03:44:48;102333.69;;;9.92;100.00
14767;BME280;7475;53.558;9.970;2023-05-29T03:47:14;102337.25;;;9.91;100.00
14767;BME280;7475;53.558;9.970;2023-05-29T03:49:39;102332.94;;;9.89;100.00
14767;BME280;7475;53.558;9.970;2023-05-29T03:52:05;102341.66;;;9.92;100.00
14767;BME280;7475;53.558;9.970;2023-05-29T03:54:30;102342.56;;;9.91;100.00
14767;BME280;7475;53.558;9.970;2023-05-29T03:56:56;102340.84;;;9.90;100.00
14767;BME280;7475;53.558;9.970;2023-05-29T03:59:21;102336.47;;;9.89;100.00
14767;BME280;7475;53.558;9.970;2023-05-29T04:01:46;102340.84;;;9.90;100.00
14767;BME280;7475;53.558;9.970;2023-05-29T04:04:12;102339.06;;;9.91;100.00
14767;BME280;7475;53.558;9.970;2023-05-29T04:06:37;102341.63;;;9.94;100.00
14767;BME280;7475;53.558;9.970;2023-05-29T04:09:05;102347.78;;;9.94;100.00
14767;BME280;7475;53.558;9.970;2023-05-29T04:11:33;102347.78;;;9.94;100.00
14767;BME280;7475;53.558;9.970;2023-05-29T04:14:00;102353.94;;;9.95;100.00
14767;BME280;7475;53.558;9.970;2023-05-29T04:16:27;102358.38;;;9.94;100.00
14767;BME280;7475;53.558;9.970;2023-05-29T04:18:53;102367.16;;;9.96;100.00
14767;BME280;7475;53.558;9.970;2023-05-29T04:21:18;102371.59;;;9.96;100.00
14767;BME280;7475;53.558;9.970;2023-05-29T04:23:43;102369.81;;;9.96;100.00
14767;BME280;7475;53.558;9.970;2023-05-29T04:26:09;102370.75;;;9.95;100.00
14767;BME280;7475;53.558;9.970;2023-05-29T04:28:35;102365.44;;;9.95;100.00
14767;BME280;7475;53.558;9.970;2023-05-29T04:31:03;102369.75;;;9.98;100.00
14767;BME280;7475;53.558;9.970;2023-05-29T04:33:28;102364.38;;;9.99;100.00
14767;BME280;7475;53.558;9.970;2023-05-29T04:35:54;102376.81;;;9.99;100.00
14767;BME280;7475;53.558;9.970;2023-05-29T04:38:20;102380.25;;;10.01;100.00
14767;BME280;7475;53.558;9.970;2023-05-29T04:40:50;102380.22;;;10.02;100.00
14767;BME280;7475;53.558;9.970;2023-05-29T04:43:15;102379.28;;;10.03;100.00
14767;BME280;7475;53.558;9.970;2023-05-29T04:45:41;102373.94;;;10.05;100.00
14767;BME280;7475;53.558;9.970;2023-05-29T04:48:07;102380.91;;;10.08;100.00
14767;BME280;7475;53.558;9.970;2023-05-29T04:50:33;102377.34;;;10.09;100.00
14767;BME280;7475;53.558;9.970;2023-05-29T04:53:00;102375.47;;;10.11;100.00
14767;BME280;7475;53.558;9.970;2023-05-29T04:55:25;102375.38;;;10.14;100.00
14767;BME280;7475;53.558;9.970;2023-05-29T04:57:51;102387.63;;;10.18;100.00
14767;BME280;7475;53.558;9.970;2023-05-29T05:00:17;102385.75;;;10.20;100.00
14767;BME280;7475;53.558;9.970;2023-05-29T05:02:43;102385.66;;;10.23;100.00
14767;BME280;7475;53.558;9.970;2023-05-29T05:05:10;102390.84;;;10.26;100.00
14767;BME280;7475;53.558;9.970;2023-05-29T05:07:35;102396.06;;;10.29;100.00
14767;BME280;7475;53.558;9.970;2023-05-29T05:10:02;102394.13;;;10.34;100.00
14767;BME280;7475;53.558;9.970;2023-05-29T05:12:28;102394.13;;;10.34;100.00
14767;BME280;7475;53.558;9.970;2023-05-29T05:14:53;102387.84;;;10.37;100.00
14767;BME280;7475;53.558;9.970;2023-05-29T05:17:18;102395.59;;;10.42;100.00
14767;BME280;7475;53.558;9.970;2023-05-29T05:19:44;102398.19;;;10.43;100.00
14767;BME280;7475;53.558;9.970;2023-05-29T05:22:09;102398.97;;;10.47;100.00
14767;BME280;7475;53.558;9.970;2023-05-29T05:24:35;102404.16;;;10.50;100.00
14767;BME280;7475;53.558;9.970;2023-05-29T05:27:00;102403.22;;;10.51;100.00
14767;BME280;7475;53.558;9.970;2023-05-29T05:29:25;102402.19;;;10.55;100.00
14767;BME280;7475;53.558;9.970;2023-05-29T05:31:51;102403.91;;;10.56;100.00
14767;BME280;7475;53.558;9.970;2023-05-29T05:34:16;102408.31;;;10.57;100.00
14767;BME280;7475;53.558;9.970;2023-05-29T05:36:42;102397.69;;;10.57;100.00
14767;BME280;7475;53.558;9.970;2023-05-29T05:39:07;102394.13;;;10.58;100.00
14767;BME280;7475;53.558;9.970;2023-05-29T05:41:33;102394.13;;;10.58;100.00
14767;BME280;7475;53.558;9.970;2023-05-29T05:43:58;102403.69;;;10.62;100.00
14767;BME280;7475;53.558;9.970;2023-05-29T05:46:23;102397.44;;;10.63;100.00
14767;BME280;7475;53.558;9.970;2023-05-29T05:48:49;102405.31;;;10.66;100.00
14767;BME280;7475;53.558;9.970;2023-05-29T05:51:14;102401.59;;;10.70;100.00
14767;BME280;7475;53.558;9.970;2023-05-29T05:53:40;102390.84;;;10.73;100.00
14767;BME280;7475;53.558;9.970;2023-05-29T05:56:05;102395.19;;;10.76;100.00
14767;BME280;7475;53.558;9.970;2023-05-29T05:58:30;102387.88;;;10.81;100.00
14767;BME280;7475;53.558;9.970;2023-05-29T06:00:56;102393.94;;;10.85;100.00
14767;BME280;7475;53.558;9.970;2023-05-29T06:03:22;102390.25;;;10.89;100.00
14767;BME280;7475;53.558;9.970;2023-05-29T06:05:47;102394.44;;;10.94;100.00
14767;BME280;7475;53.558;9.970;2023-05-29T06:08:13;102392.59;;;10.97;100.00
14767;BME280;7475;53.558;9.970;2023-05-29T06:10:38;102402.22;;;10.99;100.00
14767;BME280;7475;53.558;9.970;2023-05-29T06:13:03;102398.53;;;11.03;100.00
14767;BME280;7475;53.558;9.970;2023-05-29T06:15:29;102405.44;;;11.07;100.00
14767;BME280;7475;53.558;9.970;2023-05-29T06:17:54;102403.59;;;11.09;100.00
14767;BME280;7475;53.558;9.970;2023-05-29T06:20:21;102398.97;;;11.15;100.00
14767;BME280;7475;53.558;9.970;2023-05-29T06:22:46;102404.94;;;11.20;100.00
14767;BME280;7475;53.558;9.970;2023-05-29T06:25:18;102399.38;;;11.26;100.00
14767;BME280;7475;53.558;9.970;2023-05-29T06:27:44;102402.69;;;11.31;100.00
14767;BME280;7475;53.558;9.970;2023-05-29T06:30:11;102392.72;;;11.36;100.00
14767;BME280;7475;53.558;9.970;2023-05-29T06:32:36;102389.81;;;11.42;100.00
14767;BME280;7475;53.558;9.970;2023-05-29T06:35:02;102397.75;;;11.44;100.00
14767;BME280;7475;53.558;9.970;2023-05-29T06:37:27;102395.81;;;11.47;100.00
14767;BME280;7475;53.558;9.970;2023-05-29T06:39:52;102384.91;;;11.54;100.00
14767;BME280;7475;53.558;9.970;2023-05-29T06:42:17;102402.28;;;11.62;100.00
14767;BME280;7475;53.558;9.970;2023-05-29T06:44:43;102402.88;;;11.69;100.00
14767;BME280;7475;53.558;9.970;2023-05-29T06:47:08;102392.75;;;11.77;100.00
14767;BME280;7475;53.558;9.970;2023-05-29T06:49:33;102389.72;;;11.87;100.00
14767;BME280;7475;53.558;9.970;2023-05-29T06:51:59;102385.84;;;11.94;100.00
14767;BME280;7475;53.558;9.970;2023-05-29T06:54:25;102389.94;;;12.02;100.00
14767;BME280;7475;53.558;9.970;2023-05-29T06:56:50;102393.81;;;12.14;100.00
14767;BME280;7475;53.558;9.970;2023-05-29T06:59:16;102400.38;;;12.26;100.00
14767;BME280;7475;53.558;9.970;2023-05-29T07:01:41;102406.97;;;12.38;100.00
14767;BME280;7475;53.558;9.970;2023-05-29T07:04:06;102396.59;;;12.51;100.00
14767;BME280;7475;53.558;9.970;2023-05-29T07:06:32;102411.91;;;12.65;100.00
14767;BME280;7475;53.558;9.970;2023-05-29T07:08:58;102405.09;;;12.78;100.00
14767;BME280;7475;53.558;9.970;2023-05-29T07:11:23;102412.03;;;13.00;100.00
14767;BME280;7475;53.558;9.970;2023-05-29T07:13:50;102407.31;;;13.24;100.00
14767;BME280;7475;53.558;9.970;2023-05-29T07:16:15;102414.34;;;13.44;100.00
14767;BME280;7475;53.558;9.970;2023-05-29T07:18:41;102412.25;;;13.68;100.00
14767;BME280;7475;53.558;9.970;2023-05-29T07:21:06;102410.47;;;14.02;100.00
14767;BME280;7475;53.558;9.970;2023-05-29T07:23:32;102411.25;;;14.37;100.00
14767;BME280;7475;53.558;9.970;2023-05-29T07:25:57;102423.56;;;14.73;100.00
14767;BME280;7475;53.558;9.970;2023-05-29T07:28:23;102417.00;;;15.11;100.00
14767;BME280;7475;53.558;9.970;2023-05-29T07:30:48;102416.03;;;15.42;100.00
14767;BME280;7475;53.558;9.970;2023-05-29T07:33:13;102418.03;;;15.69;100.00
14767;BME280;7475;53.558;9.970;2023-05-29T07:35:39;102417.94;;;16.01;100.00
14767;BME280;7475;53.558;9.970;2023-05-29T07:38:04;102416.31;;;16.42;100.00
14767;BME280;7475;53.558;9.970;2023-05-29T07:40:29;102417.72;;;16.90;100.00
14767;BME280;7475;53.558;9.970;2023-05-29T07:42:55;102406.50;;;17.51;100.00
14767;BME280;7475;53.558;9.970;2023-05-29T07:45:20;102419.91;;;18.17;96.91
14767;BME280;7475;53.558;9.970;2023-05-29T07:47:45;102422.19;;;18.60;88.46
14767;BME280;7475;53.558;9.970;2023-05-29T07:50:11;102411.56;;;18.96;87.53
14767;BME280;7475;53.558;9.970;2023-05-29T07:52:36;102413.63;;;19.16;75.92
14767;BME280;7475;53.558;9.970;2023-05-29T07:55:01;102402.53;;;19.21;75.80
14767;BME280;7475;53.558;9.970;2023-05-29T07:57:27;102408.72;;;19.34;79.88
14767;BME280;7475;53.558;9.970;2023-05-29T07:59:53;102419.03;;;19.52;80.98
14767;BME280;7475;53.558;9.970;2023-05-29T08:02:19;102420.28;;;19.59;75.90
14767;BME280;7475;53.558;9.970;2023-05-29T08:04:44;102424.75;;;19.71;78.14
14767;BME280;7475;53.558;9.970;2023-05-29T08:07:10;102413.72;;;19.74;73.92
14767;BME280;7475;53.558;9.970;2023-05-29T08:09:35;102407.63;;;19.83;69.48
14767;BME280;7475;53.558;9.970;2023-05-29T08:12:01;102413.50;;;19.89;66.63
14767;BME280;7475;53.558;9.970;2023-05-29T08:14:27;102421.38;;;19.92;64.84
14767;BME280;7475;53.558;9.970;2023-05-29T08:16:52;102415.97;;;19.92;62.49
14767;BME280;7475;53.558;9.970;2023-05-29T08:19:18;102418.78;;;19.90;62.40
14767;BME280;7475;53.558;9.970;2023-05-29T08:21:43;102420.28;;;19.94;64.90
14767;BME280;7475;53.558;9.970;2023-05-29T08:24:08;102419.94;;;20.10;64.26
14767;BME280;7475;53.558;9.970;2023-05-29T08:26:34;102419.81;;;20.23;61.63
14767;BME280;7475;53.558;9.970;2023-05-29T08:29:00;102421.66;;;20.34;60.86
14767;BME280;7475;53.558;9.970;2023-05-29T08:31:25;102404.22;;;20.49;61.87
14767;BME280;7475;53.558;9.970;2023-05-29T08:33:52;102407.78;;;20.72;62.09
14767;BME280;7475;53.558;9.970;2023-05-29T08:36:18;102410.13;;;20.77;54.91
14767;BME280;7475;53.558;9.970;2023-05-29T08:38:46;102409.34;;;20.86;55.37
14767;BME280;7475;53.558;9.970;2023-05-29T08:41:17;102409.38;;;21.07;57.18
14767;BME280;7475;53.558;9.970;2023-05-29T08:43:47;102408.91;;;21.35;59.72
14767;BME280;7475;53.558;9.970;2023-05-29T08:46:13;102409.31;;;21.62;58.05
14767;BME280;7475;53.558;9.970;2023-05-29T08:48:43;102410.28;;;21.82;51.78
14767;BME280;7475;53.558;9.970;2023-05-29T08:51:13;102412.06;;;21.93;50.13
14767;BME280;7475;53.558;9.970;2023-05-29T08:53:39;102411.50;;;21.99;49.09
14767;BME280;7475;53.558;9.970;2023-05-29T08:56:05;102411.50;;;21.99;46.91
14767;BME280;7475;53.558;9.970;2023-05-29T08:58:31;102406.03;;;22.11;48.02
14767;BME280;7475;53.558;9.970;2023-05-29T09:00:57;102421.72;;;22.48;49.88
14767;BME280;7475;53.558;9.970;2023-05-29T09:03:22;102405.50;;;22.58;45.27
14767;BME280;7475;53.558;9.970;2023-05-29T09:05:48;102408.41;;;22.85;46.09
14767;BME280;7475;53.558;9.970;2023-05-29T09:08:14;102417.88;;;23.20;44.47
14767;BME280;7475;53.558;9.970;2023-05-29T09:10:43;102404.31;;;23.50;42.15
14767;BME280;7475;53.558;9.970;2023-05-29T09:13:09;102403.25;;;23.90;39.01
14767;BME280;7475;53.558;9.970;2023-05-29T09:15:35;102409.53;;;24.00;39.86
14767;BME280;7475;53.558;9.970;2023-05-29T09:18:01;102412.06;;;24.11;39.49
14767;BME280;7475;53.558;9.970;2023-05-29T09:20:26;102413.69;;;24.32;39.90
14767;BME280;7475;53.558;9.970;2023-05-29T09:22:55;102409.84;;;24.52;39.46
14767;BME280;7475;53.558;9.970;2023-05-29T09:25:26;102404.94;;;24.66;38.46
14767;BME280;7475;53.558;9.970;2023-05-29T09:27:57;102412.06;;;24.95;37.30
14767;BME280;7475;53.558;9.970;2023-05-29T09:30:40;102405.94;;;25.29;37.96
14767;BME280;7475;53.558;9.970;2023-05-29T09:33:18;102409.31;;;25.67;36.40
14767;BME280;7475;53.558;9.970;2023-05-29T09:35:45;102402.75;;;26.04;36.10
14767;BME280;7475;53.558;9.970;2023-05-29T09:38:15;102407.91;;;26.58;35.09
14767;BME280;7475;53.558;9.970;2023-05-29T09:40:41;102403.06;;;26.78;33.14
14767;BME280;7475;53.558;9.970;2023-05-29T09:43:15;102410.81;;;27.32;33.30
14767;BME280;7475;53.558;9.970;2023-05-29T09:45:46;102403.41;;;27.82;31.62
14767;BME280;7475;53.558;9.970;2023-05-29T09:48:32;102408.53;;;28.41;30.14
14767;BME280;7475;53.558;9.970;2023-05-29T09:50:58;102396.19;;;29.08;30.04
14767;BME280;7475;53.558;9.970;2023-05-29T09:53:27;102390.06;;;29.67;28.76
14767;BME280;7475;53.558;9.970;2023-05-29T09:55:57;102402.97;;;30.62;28.43
14767;BME280;7475;53.558;9.970;2023-05-29T09:58:24;102397.03;;;30.80;25.71
14767;BME280;7475;53.558;9.970;2023-05-29T10:00:51;102404.44;;;30.80;25.96
14767;BME280;7475;53.558;9.970;2023-05-29T10:03:17;102400.63;;;31.46;25.93
14767;BME280;7475;53.558;9.970;2023-05-29T10:05:49;102389.94;;;32.69;25.14
14767;BME280;7475;53.558;9.970;2023-05-29T10:08:17;102392.09;;;33.74;23.11
14767;BME280;7475;53.558;9.970;2023-05-29T10:10:45;102385.59;;;34.72;23.21
14767;BME280;7475;53.558;9.970;2023-05-29T10:13:12;102392.63;;;35.76;21.55
14767;BME280;7475;53.558;9.970;2023-05-29T10:15:41;102378.41;;;37.00;20.82
14767;BME280;7475;53.558;9.970;2023-05-29T10:18:21;102373.75;;;38.36;18.88
14767;BME280;7475;53.558;9.970;2023-05-29T10:20:52;102375.47;;;39.33;18.30
14767;BME280;7475;53.558;9.970;2023-05-29T10:23:22;102371.94;;;39.99;18.62
14767;BME280;7475;53.558;9.970;2023-05-29T10:25:51;102367.91;;;40.34;17.28
14767;BME280;7475;53.558;9.970;2023-05-29T10:28:17;102358.84;;;40.76;16.67
14767;BME280;7475;53.558;9.970;2023-05-29T10:30:52;102363.25;;;41.37;15.92
14767;BME280;7475;53.558;9.970;2023-05-29T10:33:27;102355.25;;;42.14;15.70
14767;BME280;7475;53.558;9.970;2023-05-29T10:38:26;102349.97;;;44.07;14.34
14767;BME280;7475;53.558;9.970;2023-05-29T10:40:51;102342.22;;;44.78;13.65
14767;BME280;7475;53.558;9.970;2023-05-29T10:43:30;102339.63;;;45.64;13.36
14767;BME280;7475;53.558;9.970;2023-05-29T10:45:57;102331.91;;;46.51;13.17
14767;BME280;7475;53.558;9.970;2023-05-29T10:50:55;102330.72;;;47.32;11.99
14767;BME280;7475;53.558;9.970;2023-05-29T10:53:32;102330.38;;;47.75;11.10
14767;BME280;7475;53.558;9.970;2023-05-29T10:56:00;102335.81;;;47.57;11.29
14767;BME280;7475;53.558;9.970;2023-05-29T10:58:30;102340.72;;;48.02;11.23
14767;BME280;7475;53.558;9.970;2023-05-29T11:00:55;102333.59;;;48.64;10.71
14767;BME280;7475;53.558;9.970;2023-05-29T11:03:29;102322.44;;;48.81;10.50
14767;BME280;7475;53.558;9.970;2023-05-29T11:06:03;102322.84;;;49.37;10.12
14767;BME280;7475;53.558;9.970;2023-05-29T11:08:44;102311.97;;;49.62;10.41
14767;BME280;7475;53.558;9.970;2023-05-29T11:11:34;102311.31;;;50.35;9.40
14767;BME280;7475;53.558;9.970;2023-05-29T11:14:06;102307.69;;;50.91;9.50
14767;BME280;7475;53.558;9.970;2023-05-29T11:18:59;102301.78;;;51.85;9.42
14767;BME280;7475;53.558;9.970;2023-05-29T11:21:48;102298.59;;;52.08;8.58
14767;BME280;7475;53.558;9.970;2023-05-29T11:24:25;102301.94;;;52.22;8.90
14767;BME280;7475;53.558;9.970;2023-05-29T11:26:52;102297.53;;;52.46;8.49
14767;BME280;7475;53.558;9.970;2023-05-29T11:29:26;102298.50;;;52.50;8.03
14767;BME280;7475;53.558;9.970;2023-05-29T11:31:58;102294.63;;;52.21;7.82
14767;BME280;7475;53.558;9.970;2023-05-29T11:34:24;102290.41;;;51.73;8.04
14767;BME280;7475;53.558;9.970;2023-05-29T11:36:52;102285.25;;;51.45;8.71
14767;BME280;7475;53.558;9.970;2023-05-29T11:39:18;102281.56;;;50.94;8.79
14767;BME280;7475;53.558;9.970;2023-05-29T11:41:43;102272.47;;;51.09;8.79
14767;BME280;7475;53.558;9.970;2023-05-29T11:44:08;102281.03;;;51.51;8.79
14767;BME280;7475;53.558;9.970;2023-05-29T11:46:34;102270.91;;;51.50;8.54
14767;BME280;7475;53.558;9.970;2023-05-29T11:49:00;102284.03;;;51.34;8.69
14767;BME280;7475;53.558;9.970;2023-05-29T11:51:25;102283.31;;;51.37;8.62
14767;BME280;7475;53.558;9.970;2023-05-29T11:53:51;102285.69;;;50.40;8.28
14767;BME280;7475;53.558;9.970;2023-05-29T11:56:23;102283.06;;;49.83;8.69
14767;BME280;7475;53.558;9.970;2023-05-29T11:58:48;102281.91;;;49.57;9.06
14767;BME280;7475;53.558;9.970;2023-05-29T12:01:16;102280.53;;;49.29;9.58
14767;BME280;7475;53.558;9.970;2023-05-29T12:03:42;102278.31;;;49.17;9.25
14767;BME280;7475;53.558;9.970;2023-05-29T12:06:11;102275.88;;;48.84;9.28
14767;BME280;7475;53.558;9.970;2023-05-29T12:08:38;102272.56;;;48.37;9.24
14767;BME280;7475;53.558;9.970;2023-05-29T12:11:03;102272.13;;;47.98;9.47
14767;BME280;7475;53.558;9.970;2023-05-29T12:13:29;102269.72;;;47.69;10.00
14767;BME280;7475;53.558;9.970;2023-05-29T12:15:57;102263.09;;;47.37;10.10
14767;BME280;7475;53.558;9.970;2023-05-29T12:18:24;102274.59;;;46.99;10.16
14767;BME280;7475;53.558;9.970;2023-05-29T12:20:50;102273.63;;;46.43;10.13
14767;BME280;7475;53.558;9.970;2023-05-29T12:23:17;102275.56;;;46.09;11.04
14767;BME280;7475;53.558;9.970;2023-05-29T12:25:45;102269.91;;;45.71;11.09
14767;BME280;7475;53.558;9.970;2023-05-29T12:28:16;102263.19;;;45.29;11.44
14767;BME280;7475;53.558;9.970;2023-05-29T12:30:42;102266.38;;;44.93;11.58
14767;BME280;7475;53.558;9.970;2023-05-29T12:33:08;102272.53;;;44.66;11.72
14767;BME280;7475;53.558;9.970;2023-05-29T12:35:34;102264.59;;;44.09;11.21
14767;BME280;7475;53.558;9.970;2023-05-29T12:38:04;102276.44;;;43.30;11.85
14767;BME280;7475;53.558;9.970;2023-05-29T12:40:31;102272.38;;;42.46;12.37
14767;BME280;7475;53.558;9.970;2023-05-29T12:43:00;102272.56;;;41.82;13.08
14767;BME280;7475;53.558;9.970;2023-05-29T12:45:27;102267.41;;;41.54;13.12
14767;BME280;7475;53.558;9.970;2023-05-29T12:47:58;102267.94;;;41.40;13.45
14767;BME280;7475;53.558;9.970;2023-05-29T12:50:28;102250.44;;;41.02;13.42
14767;BME280;7475;53.558;9.970;2023-05-29T12:53:05;102248.91;;;40.47;13.73
14767;BME280;7475;53.558;9.970;2023-05-29T12:55:35;102248.53;;;40.05;13.92
14767;BME280;7475;53.558;9.970;2023-05-29T12:58:08;102235.88;;;39.70;14.76
14767;BME280;7475;53.558;9.970;2023-05-29T13:00:35;102241.16;;;39.50;15.32
14767;BME280;7475;53.558;9.970;2023-05-29T13:03:00;102252.03;;;39.29;14.92
14767;BME280;7475;53.558;9.970;2023-05-29T13:05:26;102248.88;;;39.04;14.43
14767;BME280;7475;53.558;9.970;2023-05-29T13:07:52;102244.63;;;38.45;14.77
14767;BME280;7475;53.558;9.970;2023-05-29T13:10:21;102240.41;;;37.97;15.34
14767;BME280;7475;53.558;9.970;2023-05-29T13:12:47;102233.63;;;37.64;15.45